Terminal Aerodrome Forecast
Issued by NWS

Home | Current Version | Previous Version | Text Only | Print | Product List | Glossary On
Versions: 1 2 3 4 5 6 7 8 9 10 11 12 13 14 15 16 17 18 19
000
FTUS42 KGSP 201800 AAA
TAFHKY
TAF AMD
KHKY 201819Z 2018/2118 05010KT P6SM FEW250
     FM202200 06008KT P6SM FEW230
     FM210600 03004KT P6SM FEW250=

USA.gov is the U.S. government's official web portal to all federal, state and local government web resources and services.